sensor_id;sensor_type;location;lat;lon;timestamp;P1;durP1;ratioP1;P2;durP2;ratioP2
81201;SDS011;71068;47.662;-2.750;2023-07-02T00:02:15;22.27;;;7.90;;
81201;SDS011;71068;47.662;-2.750;2023-07-02T00:04:43;24.02;;;8.43;;
81201;SDS011;71068;47.662;-2.750;2023-07-02T00:07:10;23.40;;;7.93;;
81201;SDS011;71068;47.662;-2.750;2023-07-02T00:09:36;29.48;;;10.68;;
81201;SDS011;71068;47.662;-2.750;2023-07-02T00:12:02;23.80;;;9.38;;
81201;SDS011;71068;47.662;-2.750;2023-07-02T00:14:30;22.55;;;8.40;;
81201;SDS011;71068;47.662;-2.750;2023-07-02T00:16:56;24.52;;;8.82;;
81201;SDS011;71068;47.662;-2.750;2023-07-02T00:19:22;23.17;;;9.05;;
81201;SDS011;71068;47.662;-2.750;2023-07-02T00:21:48;24.67;;;7.95;;
81201;SDS011;71068;47.662;-2.750;2023-07-02T00:24:14;26.15;;;9.20;;
81201;SDS011;71068;47.662;-2.750;2023-07-02T00:26:41;22.35;;;7.07;;
81201;SDS011;71068;47.662;-2.750;2023-07-02T00:29:07;25.38;;;9.15;;
81201;SDS011;71068;47.662;-2.750;2023-07-02T00:31:35;25.00;;;7.78;;
81201;SDS011;71068;47.662;-2.750;2023-07-02T00:34:03;28.70;;;8.48;;
81201;SDS011;71068;47.662;-2.750;2023-07-02T00:36:31;23.42;;;8.57;;
81201;SDS011;71068;47.662;-2.750;2023-07-02T00:38:58;24.63;;;9.13;;
81201;SDS011;71068;47.662;-2.750;2023-07-02T00:41:24;22.10;;;8.43;;
81201;SDS011;71068;47.662;-2.750;2023-07-02T00:43:51;20.33;;;8.85;;
81201;SDS011;71068;47.662;-2.750;2023-07-02T00:46:20;29.88;;;9.60;;
81201;SDS011;71068;47.662;-2.750;2023-07-02T00:48:48;25.58;;;8.65;;
81201;SDS011;71068;47.662;-2.750;2023-07-02T00:51:18;18.17;;;7.75;;
81201;SDS011;71068;47.662;-2.750;2023-07-02T00:53:51;28.45;;;9.93;;
81201;SDS011;71068;47.662;-2.750;2023-07-02T00:56:19;18.58;;;7.72;;
81201;SDS011;71068;47.662;-2.750;2023-07-02T00:58:47;23.83;;;7.68;;
81201;SDS011;71068;47.662;-2.750;2023-07-02T01:01:25;29.70;;;9.40;;
81201;SDS011;71068;47.662;-2.750;2023-07-02T01:06:26;21.38;;;7.90;;
81201;SDS011;71068;47.662;-2.750;2023-07-02T01:08:54;22.52;;;9.40;;
81201;SDS011;71068;47.662;-2.750;2023-07-02T01:11:25;24.05;;;8.77;;
81201;SDS011;71068;47.662;-2.750;2023-07-02T01:13:57;22.52;;;8.27;;
81201;SDS011;71068;47.662;-2.750;2023-07-02T01:16:29;25.90;;;10.20;;
81201;SDS011;71068;47.662;-2.750;2023-07-02T01:18:58;25.23;;;8.10;;
81201;SDS011;71068;47.662;-2.750;2023-07-02T01:21:31;15.95;;;7.85;;
81201;SDS011;71068;47.662;-2.750;2023-07-02T01:23:58;20.70;;;8.02;;
81201;SDS011;71068;47.662;-2.750;2023-07-02T01:26:29;24.13;;;9.15;;
81201;SDS011;71068;47.662;-2.750;2023-07-02T01:29:00;25.08;;;9.55;;
81201;SDS011;71068;47.662;-2.750;2023-07-02T01:31:42;21.50;;;8.38;;
81201;SDS011;71068;47.662;-2.750;2023-07-02T01:34:08;23.25;;;8.02;;
81201;SDS011;71068;47.662;-2.750;2023-07-02T01:36:34;20.65;;;7.70;;
81201;SDS011;71068;47.662;-2.750;2023-07-02T01:39:00;23.83;;;8.68;;
81201;SDS011;71068;47.662;-2.750;2023-07-02T01:41:27;27.00;;;8.52;;
81201;SDS011;71068;47.662;-2.750;2023-07-02T01:43:54;24.02;;;9.30;;
81201;SDS011;71068;47.662;-2.750;2023-07-02T01:46:20;20.65;;;8.10;;
81201;SDS011;71068;47.662;-2.750;2023-07-02T01:48:47;25.35;;;8.75;;
81201;SDS011;71068;47.662;-2.750;2023-07-02T01:51:13;17.15;;;8.32;;
81201;SDS011;71068;47.662;-2.750;2023-07-02T01:56:10;26.15;;;8.75;;
81201;SDS011;71068;47.662;-2.750;2023-07-02T01:58:36;21.67;;;8.70;;
81201;SDS011;71068;47.662;-2.750;2023-07-02T02:01:02;28.42;;;10.48;;
81201;SDS011;71068;47.662;-2.750;2023-07-02T02:03:27;27.73;;;10.13;;
81201;SDS011;71068;47.662;-2.750;2023-07-02T02:05:53;23.35;;;8.80;;
81201;SDS011;71068;47.662;-2.750;2023-07-02T02:08:20;24.67;;;8.70;;
81201;SDS011;71068;47.662;-2.750;2023-07-02T02:10:46;21.88;;;9.40;;
81201;SDS011;71068;47.662;-2.750;2023-07-02T02:13:12;23.38;;;8.45;;
81201;SDS011;71068;47.662;-2.750;2023-07-02T02:15:39;28.52;;;9.00;;
81201;SDS011;71068;47.662;-2.750;2023-07-02T02:18:07;22.90;;;9.30;;
81201;SDS011;71068;47.662;-2.750;2023-07-02T02:20:32;27.90;;;9.23;;
81201;SDS011;71068;47.662;-2.750;2023-07-02T02:22:58;14.52;;;7.90;;
81201;SDS011;71068;47.662;-2.750;2023-07-02T02:25:24;33.17;;;9.02;;
81201;SDS011;71068;47.662;-2.750;2023-07-02T02:27:52;18.08;;;8.20;;
81201;SDS011;71068;47.662;-2.750;2023-07-02T02:30:18;28.25;;;8.93;;
81201;SDS011;71068;47.662;-2.750;2023-07-02T02:32:44;39.60;;;8.90;;
81201;SDS011;71068;47.662;-2.750;2023-07-02T02:35:10;19.20;;;9.43;;
81201;SDS011;71068;47.662;-2.750;2023-07-02T02:37:37;21.85;;;8.48;;
81201;SDS011;71068;47.662;-2.750;2023-07-02T02:40:06;25.63;;;10.00;;
81201;SDS011;71068;47.662;-2.750;2023-07-02T02:42:34;22.25;;;8.50;;
81201;SDS011;71068;47.662;-2.750;2023-07-02T02:45:02;20.35;;;9.10;;
81201;SDS011;71068;47.662;-2.750;2023-07-02T02:47:28;19.75;;;8.00;;
81201;SDS011;71068;47.662;-2.750;2023-07-02T02:49:54;25.67;;;9.20;;
81201;SDS011;71068;47.662;-2.750;2023-07-02T02:52:20;18.50;;;8.35;;
81201;SDS011;71068;47.662;-2.750;2023-07-02T02:54:46;24.38;;;7.88;;
81201;SDS011;71068;47.662;-2.750;2023-07-02T02:57:13;25.65;;;9.00;;
81201;SDS011;71068;47.662;-2.750;2023-07-02T02:59:39;23.40;;;8.35;;
81201;SDS011;71068;47.662;-2.750;2023-07-02T03:02:05;22.27;;;8.70;;
81201;SDS011;71068;47.662;-2.750;2023-07-02T03:04:31;28.90;;;8.82;;
81201;SDS011;71068;47.662;-2.750;2023-07-02T03:06:58;22.83;;;9.45;;
81201;SDS011;71068;47.662;-2.750;2023-07-02T03:09:26;31.48;;;11.00;;
81201;SDS011;71068;47.662;-2.750;2023-07-02T03:11:51;29.25;;;10.23;;
81201;SDS011;71068;47.662;-2.750;2023-07-02T03:14:17;30.45;;;9.77;;
81201;SDS011;71068;47.662;-2.750;2023-07-02T03:16:43;24.88;;;7.97;;
81201;SDS011;71068;47.662;-2.750;2023-07-02T03:19:11;28.58;;;10.63;;
81201;SDS011;71068;47.662;-2.750;2023-07-02T03:21:40;25.35;;;9.63;;
81201;SDS011;71068;47.662;-2.750;2023-07-02T03:24:11;22.08;;;9.77;;
81201;SDS011;71068;47.662;-2.750;2023-07-02T03:26:40;23.23;;;9.57;;
81201;SDS011;71068;47.662;-2.750;2023-07-02T03:29:06;27.67;;;9.18;;
81201;SDS011;71068;47.662;-2.750;2023-07-02T03:31:32;27.08;;;10.02;;
81201;SDS011;71068;47.662;-2.750;2023-07-02T03:34:01;23.92;;;9.25;;
81201;SDS011;71068;47.662;-2.750;2023-07-02T03:36:31;27.52;;;9.00;;
81201;SDS011;71068;47.662;-2.750;2023-07-02T03:38:57;28.67;;;9.05;;
81201;SDS011;71068;47.662;-2.750;2023-07-02T03:41:23;22.92;;;9.30;;
81201;SDS011;71068;47.662;-2.750;2023-07-02T03:43:50;26.67;;;9.25;;
81201;SDS011;71068;47.662;-2.750;2023-07-02T03:46:16;27.67;;;9.50;;
81201;SDS011;71068;47.662;-2.750;2023-07-02T03:48:44;28.42;;;8.77;;
81201;SDS011;71068;47.662;-2.750;2023-07-02T03:51:10;38.78;;;9.48;;
81201;SDS011;71068;47.662;-2.750;2023-07-02T03:53:45;30.60;;;9.68;;
81201;SDS011;71068;47.662;-2.750;2023-07-02T03:56:12;26.42;;;8.82;;
81201;SDS011;71068;47.662;-2.750;2023-07-02T03:58:39;25.08;;;9.48;;
81201;SDS011;71068;47.662;-2.750;2023-07-02T04:01:05;42.50;;;10.45;;
81201;SDS011;71068;47.662;-2.750;2023-07-02T04:03:32;24.10;;;10.00;;
81201;SDS011;71068;47.662;-2.750;2023-07-02T04:05:59;23.60;;;9.00;;
81201;SDS011;71068;47.662;-2.750;2023-07-02T04:08:25;34.90;;;10.40;;
81201;SDS011;71068;47.662;-2.750;2023-07-02T04:10:53;28.35;;;10.82;;
81201;SDS011;71068;47.662;-2.750;2023-07-02T04:13:20;27.98;;;8.63;;
81201;SDS011;71068;47.662;-2.750;2023-07-02T04:15:46;17.48;;;8.68;;
81201;SDS011;71068;47.662;-2.750;2023-07-02T04:18:12;26.63;;;9.88;;
81201;SDS011;71068;47.662;-2.750;2023-07-02T04:20:38;17.85;;;8.60;;
81201;SDS011;71068;47.662;-2.750;2023-07-02T04:23:05;25.95;;;9.07;;
81201;SDS011;71068;47.662;-2.750;2023-07-02T04:25:32;18.45;;;8.73;;
81201;SDS011;71068;47.662;-2.750;2023-07-02T04:27:59;24.90;;;9.25;;
81201;SDS011;71068;47.662;-2.750;2023-07-02T04:30:27;18.13;;;8.73;;
81201;SDS011;71068;47.662;-2.750;2023-07-02T04:32:53;21.00;;;9.15;;
81201;SDS011;71068;47.662;-2.750;2023-07-02T04:35:19;23.52;;;8.50;;
81201;SDS011;71068;47.662;-2.750;2023-07-02T04:37:45;19.92;;;8.02;;
81201;SDS011;71068;47.662;-2.750;2023-07-02T04:40:11;19.27;;;8.68;;
81201;SDS011;71068;47.662;-2.750;2023-07-02T04:42:38;21.75;;;9.88;;
81201;SDS011;71068;47.662;-2.750;2023-07-02T04:45:06;25.15;;;8.85;;
81201;SDS011;71068;47.662;-2.750;2023-07-02T04:47:34;21.13;;;8.73;;
81201;SDS011;71068;47.662;-2.750;2023-07-02T04:50:02;21.08;;;8.02;;
81201;SDS011;71068;47.662;-2.750;2023-07-02T04:52:29;18.65;;;9.63;;
81201;SDS011;71068;47.662;-2.750;2023-07-02T04:54:55;18.40;;;8.70;;
81201;SDS011;71068;47.662;-2.750;2023-07-02T04:57:21;17.98;;;7.63;;
81201;SDS011;71068;47.662;-2.750;2023-07-02T04:59:47;14.85;;;7.68;;
81201;SDS011;71068;47.662;-2.750;2023-07-02T05:02:13;17.52;;;7.78;;
81201;SDS011;71068;47.662;-2.750;2023-07-02T05:04:39;18.65;;;9.15;;
81201;SDS011;71068;47.662;-2.750;2023-07-02T05:07:05;27.13;;;8.95;;
81201;SDS011;71068;47.662;-2.750;2023-07-02T05:09:32;15.25;;;7.32;;
81201;SDS011;71068;47.662;-2.750;2023-07-02T05:12:00;20.80;;;8.70;;
81201;SDS011;71068;47.662;-2.750;2023-07-02T05:14:26;17.63;;;7.50;;
81201;SDS011;71068;47.662;-2.750;2023-07-02T05:16:52;17.70;;;7.75;;
81201;SDS011;71068;47.662;-2.750;2023-07-02T05:19:18;18.70;;;8.95;;
81201;SDS011;71068;47.662;-2.750;2023-07-02T05:21:44;20.23;;;9.05;;
81201;SDS011;71068;47.662;-2.750;2023-07-02T05:24:10;19.27;;;8.48;;
81201;SDS011;71068;47.662;-2.750;2023-07-02T05:26:37;18.45;;;8.02;;
81201;SDS011;71068;47.662;-2.750;2023-07-02T05:29:03;20.98;;;8.13;;
81201;SDS011;71068;47.662;-2.750;2023-07-02T05:31:35;16.38;;;7.93;;
81201;SDS011;71068;47.662;-2.750;2023-07-02T05:34:01;18.58;;;7.63;;
81201;SDS011;71068;47.662;-2.750;2023-07-02T05:36:27;14.55;;;6.88;;
81201;SDS011;71068;47.662;-2.750;2023-07-02T05:38:53;16.38;;;7.88;;
81201;SDS011;71068;47.662;-2.750;2023-07-02T05:41:19;15.18;;;7.53;;
81201;SDS011;71068;47.662;-2.750;2023-07-02T05:43:46;16.13;;;8.15;;
81201;SDS011;71068;47.662;-2.750;2023-07-02T05:46:12;13.93;;;7.35;;
81201;SDS011;71068;47.662;-2.750;2023-07-02T05:48:40;21.98;;;9.02;;
81201;SDS011;71068;47.662;-2.750;2023-07-02T05:51:10;18.48;;;7.32;;
81201;SDS011;71068;47.662;-2.750;2023-07-02T05:53:37;18.08;;;7.45;;
81201;SDS011;71068;47.662;-2.750;2023-07-02T05:56:03;15.95;;;6.97;;
81201;SDS011;71068;47.662;-2.750;2023-07-02T05:58:29;18.15;;;7.25;;
81201;SDS011;71068;47.662;-2.750;2023-07-02T06:00:55;16.75;;;8.50;;
81201;SDS011;71068;47.662;-2.750;2023-07-02T06:03:21;17.77;;;9.00;;
81201;SDS011;71068;47.662;-2.750;2023-07-02T06:05:48;21.98;;;7.53;;
81201;SDS011;71068;47.662;-2.750;2023-07-02T06:08:18;15.82;;;8.13;;
81201;SDS011;71068;47.662;-2.750;2023-07-02T06:10:45;19.33;;;8.15;;
81201;SDS011;71068;47.662;-2.750;2023-07-02T06:13:12;18.02;;;8.60;;
81201;SDS011;71068;47.662;-2.750;2023-07-02T06:15:39;23.25;;;9.25;;
81201;SDS011;71068;47.662;-2.750;2023-07-02T06:18:06;22.73;;;8.70;;
81201;SDS011;71068;47.662;-2.750;2023-07-02T06:20:31;17.98;;;7.65;;
81201;SDS011;71068;47.662;-2.750;2023-07-02T06:22:57;21.27;;;8.75;;
81201;SDS011;71068;47.662;-2.750;2023-07-02T06:25:24;22.60;;;8.40;;
81201;SDS011;71068;47.662;-2.750;2023-07-02T06:27:50;23.40;;;9.95;;
81201;SDS011;71068;47.662;-2.750;2023-07-02T06:30:16;19.33;;;9.48;;
81201;SDS011;71068;47.662;-2.750;2023-07-02T06:32:43;16.98;;;7.85;;
81201;SDS011;71068;47.662;-2.750;2023-07-02T06:35:09;17.92;;;8.07;;
81201;SDS011;71068;47.662;-2.750;2023-07-02T06:37:35;17.90;;;8.15;;
81201;SDS011;71068;47.662;-2.750;2023-07-02T06:40:01;21.55;;;8.70;;
81201;SDS011;71068;47.662;-2.750;2023-07-02T06:42:27;19.83;;;8.68;;
81201;SDS011;71068;47.662;-2.750;2023-07-02T06:44:53;20.67;;;8.07;;
81201;SDS011;71068;47.662;-2.750;2023-07-02T06:47:19;20.83;;;8.73;;
81201;SDS011;71068;47.662;-2.750;2023-07-02T06:49:44;17.50;;;6.82;;
81201;SDS011;71068;47.662;-2.750;2023-07-02T06:52:11;22.85;;;9.07;;
81201;SDS011;71068;47.662;-2.750;2023-07-02T06:54:37;28.20;;;8.45;;
81201;SDS011;71068;47.662;-2.750;2023-07-02T06:57:03;19.13;;;7.65;;
81201;SDS011;71068;47.662;-2.750;2023-07-02T06:59:29;19.80;;;7.80;;
81201;SDS011;71068;47.662;-2.750;2023-07-02T07:01:55;22.60;;;8.32;;
81201;SDS011;71068;47.662;-2.750;2023-07-02T07:04:21;22.08;;;8.60;;
81201;SDS011;71068;47.662;-2.750;2023-07-02T07:06:49;18.73;;;8.18;;
81201;SDS011;71068;47.662;-2.750;2023-07-02T07:09:16;16.35;;;6.43;;
81201;SDS011;71068;47.662;-2.750;2023-07-02T07:11:45;17.48;;;7.32;;
81201;SDS011;71068;47.662;-2.750;2023-07-02T07:14:10;17.67;;;6.10;;
81201;SDS011;71068;47.662;-2.750;2023-07-02T07:16:36;23.20;;;7.55;;
81201;SDS011;71068;47.662;-2.750;2023-07-02T07:19:02;18.23;;;7.03;;
81201;SDS011;71068;47.662;-2.750;2023-07-02T07:21:29;18.35;;;6.80;;
81201;SDS011;71068;47.662;-2.750;2023-07-02T07:23:54;22.85;;;7.18;;
81201;SDS011;71068;47.662;-2.750;2023-07-02T07:26:21;20.73;;;6.75;;
81201;SDS011;71068;47.662;-2.750;2023-07-02T07:28:48;24.98;;;6.43;;
81201;SDS011;71068;47.662;-2.750;2023-07-02T07:31:15;21.15;;;6.70;;
81201;SDS011;71068;47.662;-2.750;2023-07-02T07:33:41;27.40;;;5.97;;
81201;SDS011;71068;47.662;-2.750;2023-07-02T07:36:09;20.58;;;6.18;;
81201;SDS011;71068;47.662;-2.750;2023-07-02T07:38:35;21.52;;;7.30;;
81201;SDS011;71068;47.662;-2.750;2023-07-02T07:41:01;18.45;;;6.50;;
81201;SDS011;71068;47.662;-2.750;2023-07-02T07:43:28;18.60;;;6.30;;
81201;SDS011;71068;47.662;-2.750;2023-07-02T07:45:54;13.18;;;6.10;;
81201;SDS011;71068;47.662;-2.750;2023-07-02T07:48:20;23.42;;;7.15;;
81201;SDS011;71068;47.662;-2.750;2023-07-02T07:50:46;23.35;;;6.82;;
81201;SDS011;71068;47.662;-2.750;2023-07-02T07:53:13;23.67;;;5.95;;
81201;SDS011;71068;47.662;-2.750;2023-07-02T07:55:39;21.85;;;6.72;;
81201;SDS011;71068;47.662;-2.750;2023-07-02T07:58:05;19.30;;;7.20;;
81201;SDS011;71068;47.662;-2.750;2023-07-02T08:00:31;19.98;;;6.38;;
81201;SDS011;71068;47.662;-2.750;2023-07-02T08:02:57;12.05;;;5.40;;
81201;SDS011;71068;47.662;-2.750;2023-07-02T08:05:24;19.30;;;6.25;;
81201;SDS011;71068;47.662;-2.750;2023-07-02T08:07:50;14.20;;;5.68;;
81201;SDS011;71068;47.662;-2.750;2023-07-02T08:10:18;23.48;;;5.38;;
81201;SDS011;71068;47.662;-2.750;2023-07-02T08:12:44;26.27;;;6.75;;
81201;SDS011;71068;47.662;-2.750;2023-07-02T08:15:17;25.38;;;6.75;;
81201;SDS011;71068;47.662;-2.750;2023-07-02T08:17:44;22.02;;;5.97;;
81201;SDS011;71068;47.662;-2.750;2023-07-02T08:20:10;26.30;;;7.18;;
81201;SDS011;71068;47.662;-2.750;2023-07-02T08:22:40;19.95;;;5.80;;
81201;SDS011;71068;47.662;-2.750;2023-07-02T08:25:06;16.73;;;5.38;;
81201;SDS011;71068;47.662;-2.750;2023-07-02T08:27:33;19.80;;;5.88;;
81201;SDS011;71068;47.662;-2.750;2023-07-02T08:29:59;18.20;;;6.18;;
81201;SDS011;71068;47.662;-2.750;2023-07-02T08:32:25;23.83;;;7.25;;
81201;SDS011;71068;47.662;-2.750;2023-07-02T08:34:52;29.63;;;5.95;;
81201;SDS011;71068;47.662;-2.750;2023-07-02T08:37:20;14.88;;;5.78;;
81201;SDS011;71068;47.662;-2.750;2023-07-02T08:39:48;17.90;;;5.57;;
81201;SDS011;71068;47.662;-2.750;2023-07-02T08:42:16;21.67;;;6.28;;
81201;SDS011;71068;47.662;-2.750;2023-07-02T08:44:45;16.40;;;5.57;;
81201;SDS011;71068;47.662;-2.750;2023-07-02T08:47:12;12.88;;;6.18;;
81201;SDS011;71068;47.662;-2.750;2023-07-02T08:49:39;17.45;;;5.90;;
81201;SDS011;71068;47.662;-2.750;2023-07-02T08:52:07;16.58;;;5.55;;
81201;SDS011;71068;47.662;-2.750;2023-07-02T08:54:34;16.30;;;4.63;;
81201;SDS011;71068;47.662;-2.750;2023-07-02T08:57:00;12.60;;;4.75;;
81201;SDS011;71068;47.662;-2.750;2023-07-02T08:59:30;17.02;;;5.68;;
81201;SDS011;71068;47.662;-2.750;2023-07-02T09:01:57;17.40;;;5.85;;
81201;SDS011;71068;47.662;-2.750;2023-07-02T09:04:24;18.30;;;5.05;;
81201;SDS011;71068;47.662;-2.750;2023-07-02T09:07:02;18.85;;;5.88;;
81201;SDS011;71068;47.662;-2.750;2023-07-02T09:09:29;15.85;;;5.53;;
81201;SDS011;71068;47.662;-2.750;2023-07-02T09:11:55;16.35;;;5.03;;
81201;SDS011;71068;47.662;-2.750;2023-07-02T09:14:26;20.15;;;5.20;;
81201;SDS011;71068;47.662;-2.750;2023-07-02T09:17:09;15.13;;;5.70;;
81201;SDS011;71068;47.662;-2.750;2023-07-02T09:19:35;13.85;;;4.95;;
81201;SDS011;71068;47.662;-2.750;2023-07-02T09:22:04;16.60;;;5.18;;
81201;SDS011;71068;47.662;-2.750;2023-07-02T09:24:31;15.23;;;6.43;;
81201;SDS011;71068;47.662;-2.750;2023-07-02T09:27:01;18.63;;;5.80;;
81201;SDS011;71068;47.662;-2.750;2023-07-02T09:29:31;16.60;;;6.05;;
81201;SDS011;71068;47.662;-2.750;2023-07-02T09:32:00;17.42;;;5.82;;
81201;SDS011;71068;47.662;-2.750;2023-07-02T09:39:28;12.82;;;5.47;;
81201;SDS011;71068;47.662;-2.750;2023-07-02T09:41:58;19.88;;;5.22;;
81201;SDS011;71068;47.662;-2.750;2023-07-02T09:44:29;13.85;;;5.78;;
81201;SDS011;71068;47.662;-2.750;2023-07-02T09:47:02;17.27;;;5.65;;
81201;SDS011;71068;47.662;-2.750;2023-07-02T09:49:35;20.77;;;6.80;;
81201;SDS011;71068;47.662;-2.750;2023-07-02T09:52:05;16.75;;;5.55;;
81201;SDS011;71068;47.662;-2.750;2023-07-02T09:54:37;14.45;;;5.20;;
81201;SDS011;71068;47.662;-2.750;2023-07-02T09:57:12;16.40;;;5.22;;
81201;SDS011;71068;47.662;-2.750;2023-07-02T09:59:38;14.52;;;5.15;;
81201;SDS011;71068;47.662;-2.750;2023-07-02T10:02:10;16.23;;;5.47;;
81201;SDS011;71068;47.662;-2.750;2023-07-02T10:04:46;12.70;;;5.45;;
81201;SDS011;71068;47.662;-2.750;2023-07-02T10:07:26;14.80;;;5.90;;
81201;SDS011;71068;47.662;-2.750;2023-07-02T10:09:54;17.00;;;6.10;;
81201;SDS011;71068;47.662;-2.750;2023-07-02T10:14:50;14.25;;;5.57;;
81201;SDS011;71068;47.662;-2.750;2023-07-02T10:17:30;21.70;;;5.22;;
81201;SDS011;71068;47.662;-2.750;2023-07-02T10:19:59;13.18;;;6.20;;
81201;SDS011;71068;47.662;-2.750;2023-07-02T10:22:47;16.15;;;5.47;;
81201;SDS011;71068;47.662;-2.750;2023-07-02T10:25:26;20.33;;;6.65;;
81201;SDS011;71068;47.662;-2.750;2023-07-02T10:27:54;14.95;;;5.35;;
81201;SDS011;71068;47.662;-2.750;2023-07-02T10:30:34;15.70;;;5.15;;
81201;SDS011;71068;47.662;-2.750;2023-07-02T10:33:11;17.75;;;5.78;;
81201;SDS011;71068;47.662;-2.750;2023-07-02T10:35:41;12.25;;;4.15;;
81201;SDS011;71068;47.662;-2.750;2023-07-02T10:38:14;13.02;;;4.80;;
81201;SDS011;71068;47.662;-2.750;2023-07-02T10:40:59;17.20;;;5.72;;
81201;SDS011;71068;47.662;-2.750;2023-07-02T10:43:26;20.63;;;5.72;;
81201;SDS011;71068;47.662;-2.750;2023-07-02T10:45:53;15.60;;;5.43;;
81201;SDS011;71068;47.662;-2.750;2023-07-02T10:48:20;15.45;;;5.35;;
81201;SDS011;71068;47.662;-2.750;2023-07-02T10:50:48;14.35;;;5.22;;
81201;SDS011;71068;47.662;-2.750;2023-07-02T10:53:15;15.50;;;4.88;;
81201;SDS011;71068;47.662;-2.750;2023-07-02T10:55:42;15.93;;;6.03;;
81201;SDS011;71068;47.662;-2.750;2023-07-02T10:58:10;21.38;;;7.18;;
81201;SDS011;71068;47.662;-2.750;2023-07-02T11:00:47;21.13;;;5.45;;
81201;SDS011;71068;47.662;-2.750;2023-07-02T11:03:21;17.40;;;5.97;;
81201;SDS011;71068;47.662;-2.750;2023-07-02T11:05:50;25.48;;;7.28;;
81201;SDS011;71068;47.662;-2.750;2023-07-02T11:08:17;18.25;;;5.68;;
81201;SDS011;71068;47.662;-2.750;2023-07-02T11:10:46;15.23;;;5.88;;
81201;SDS011;71068;47.662;-2.750;2023-07-02T11:15:40;15.40;;;5.90;;
81201;SDS011;71068;47.662;-2.750;2023-07-02T11:18:11;19.70;;;6.35;;
81201;SDS011;71068;47.662;-2.750;2023-07-02T11:20:42;20.35;;;5.88;;
81201;SDS011;71068;47.662;-2.750;2023-07-02T11:23:24;19.33;;;5.82;;
81201;SDS011;71068;47.662;-2.750;2023-07-02T11:25:58;19.67;;;5.93;;
81201;SDS011;71068;47.662;-2.750;2023-07-02T11:28:26;18.23;;;6.95;;
81201;SDS011;71068;47.662;-2.750;2023-07-02T11:30:54;17.52;;;5.82;;
81201;SDS011;71068;47.662;-2.750;2023-07-02T11:33:31;15.07;;;5.78;;
81201;SDS011;71068;47.662;-2.750;2023-07-02T11:36:05;13.45;;;6.03;;
81201;SDS011;71068;47.662;-2.750;2023-07-02T11:38:34;13.65;;;5.50;;
81201;SDS011;71068;47.662;-2.750;2023-07-02T11:41:07;18.88;;;6.10;;
81201;SDS011;71068;47.662;-2.750;2023-07-02T11:43:35;15.95;;;5.88;;
81201;SDS011;71068;47.662;-2.750;2023-07-02T11:46:07;18.17;;;5.88;;
81201;SDS011;71068;47.662;-2.750;2023-07-02T11:48:33;20.98;;;6.88;;
81201;SDS011;71068;47.662;-2.750;2023-07-02T11:50:59;22.55;;;6.97;;
81201;SDS011;71068;47.662;-2.750;2023-07-02T11:53:27;20.95;;;5.72;;
81201;SDS011;71068;47.662;-2.750;2023-07-02T11:55:53;20.33;;;6.10;;
81201;SDS011;71068;47.662;-2.750;2023-07-02T11:58:19;23.05;;;5.97;;
81201;SDS011;71068;47.662;-2.750;2023-07-02T12:00:45;16.83;;;6.22;;
81201;SDS011;71068;47.662;-2.750;2023-07-02T12:03:11;15.70;;;5.57;;
81201;SDS011;71068;47.662;-2.750;2023-07-02T12:05:37;15.95;;;5.95;;
81201;SDS011;71068;47.662;-2.750;2023-07-02T12:08:03;15.82;;;6.47;;
81201;SDS011;71068;47.662;-2.750;2023-07-02T12:10:29;14.50;;;6.72;;
81201;SDS011;71068;47.662;-2.750;2023-07-02T12:12:55;19.98;;;6.72;;
81201;SDS011;71068;47.662;-2.750;2023-07-02T12:15:21;19.88;;;7.15;;
81201;SDS011;71068;47.662;-2.750;2023-07-02T12:17:47;16.48;;;5.95;;
81201;SDS011;71068;47.662;-2.750;2023-07-02T12:20:13;11.45;;;5.30;;
81201;SDS011;71068;47.662;-2.750;2023-07-02T12:22:39;16.33;;;5.10;;
81201;SDS011;71068;47.662;-2.750;2023-07-02T12:25:05;12.85;;;4.20;;
81201;SDS011;71068;47.662;-2.750;2023-07-02T12:27:32;12.82;;;6.03;;
81201;SDS011;71068;47.662;-2.750;2023-07-02T12:29:58;15.40;;;5.82;;
81201;SDS011;71068;47.662;-2.750;2023-07-02T12:32:25;17.92;;;5.72;;
81201;SDS011;71068;47.662;-2.750;2023-07-02T12:34:51;14.48;;;5.78;;
81201;SDS011;71068;47.662;-2.750;2023-07-02T12:37:17;14.52;;;5.60;;
81201;SDS011;71068;47.662;-2.750;2023-07-02T12:39:45;16.20;;;5.47;;
81201;SDS011;71068;47.662;-2.750;2023-07-02T12:42:11;17.33;;;5.93;;
81201;SDS011;71068;47.662;-2.750;2023-07-02T12:44:38;15.55;;;6.05;;
81201;SDS011;71068;47.662;-2.750;2023-07-02T12:47:06;17.70;;;6.30;;
81201;SDS011;71068;47.662;-2.750;2023-07-02T12:49:32;14.55;;;5.82;;
81201;SDS011;71068;47.662;-2.750;2023-07-02T12:54:29;21.13;;;5.53;;
81201;SDS011;71068;47.662;-2.750;2023-07-02T12:56:55;17.17;;;5.75;;
81201;SDS011;71068;47.662;-2.750;2023-07-02T12:59:20;16.52;;;5.78;;
81201;SDS011;71068;47.662;-2.750;2023-07-02T13:01:46;16.33;;;6.50;;
81201;SDS011;71068;47.662;-2.750;2023-07-02T13:04:15;13.68;;;5.45;;
81201;SDS011;71068;47.662;-2.750;2023-07-02T13:06:41;19.05;;;6.35;;
81201;SDS011;71068;47.662;-2.750;2023-07-02T13:09:07;17.17;;;5.80;;
81201;SDS011;71068;47.662;-2.750;2023-07-02T13:11:35;15.52;;;6.82;;
81201;SDS011;71068;47.662;-2.750;2023-07-02T13:14:02;12.68;;;5.13;;
81201;SDS011;71068;47.662;-2.750;2023-07-02T13:16:28;12.45;;;4.47;;
81201;SDS011;71068;47.662;-2.750;2023-07-02T13:18:55;18.17;;;5.45;;
81201;SDS011;71068;47.662;-2.750;2023-07-02T13:21:23;9.88;;;4.65;;
81201;SDS011;71068;47.662;-2.750;2023-07-02T13:23:49;19.90;;;5.55;;
81201;SDS011;71068;47.662;-2.750;2023-07-02T13:26:15;15.60;;;4.60;;
81201;SDS011;71068;47.662;-2.750;2023-07-02T13:28:44;15.38;;;5.97;;
81201;SDS011;71068;47.662;-2.750;2023-07-02T13:33:44;13.35;;;5.13;;
81201;SDS011;71068;47.662;-2.750;2023-07-02T13:36:11;12.65;;;4.90;;
81201;SDS011;71068;47.662;-2.750;2023-07-02T13:38:37;14.90;;;6.07;;
81201;SDS011;71068;47.662;-2.750;2023-07-02T13:41:06;14.55;;;6.30;;
81201;SDS011;71068;47.662;-2.750;2023-07-02T13:43:33;16.63;;;5.60;;
81201;SDS011;71068;47.662;-2.750;2023-07-02T13:45:59;12.13;;;4.95;;
81201;SDS011;71068;47.662;-2.750;2023-07-02T13:48:26;18.52;;;6.63;;
81201;SDS011;71068;47.662;-2.750;2023-07-02T13:50:52;15.07;;;5.70;;
81201;SDS011;71068;47.662;-2.750;2023-07-02T13:53:20;12.95;;;5.93;;
81201;SDS011;71068;47.662;-2.750;2023-07-02T13:55:46;18.88;;;6.50;;
81201;SDS011;71068;47.662;-2.750;2023-07-02T13:58:12;16.00;;;6.05;;
81201;SDS011;71068;47.662;-2.750;2023-07-02T14:00:40;16.65;;;5.03;;
81201;SDS011;71068;47.662;-2.750;2023-07-02T14:03:06;20.35;;;6.25;;
81201;SDS011;71068;47.662;-2.750;2023-07-02T14:05:32;17.52;;;5.82;;
81201;SDS011;71068;47.662;-2.750;2023-07-02T14:07:58;15.75;;;6.50;;
81201;SDS011;71068;47.662;-2.750;2023-07-02T14:10:25;16.33;;;6.50;;
81201;SDS011;71068;47.662;-2.750;2023-07-02T14:12:55;17.90;;;6.25;;
81201;SDS011;71068;47.662;-2.750;2023-07-02T14:15:23;16.73;;;6.22;;
81201;SDS011;71068;47.662;-2.750;2023-07-02T14:17:50;13.98;;;4.97;;
81201;SDS011;71068;47.662;-2.750;2023-07-02T14:20:16;16.50;;;6.30;;
81201;SDS011;71068;47.662;-2.750;2023-07-02T14:22:44;12.65;;;4.88;;
81201;SDS011;71068;47.662;-2.750;2023-07-02T14:25:11;20.70;;;6.55;;
81201;SDS011;71068;47.662;-2.750;2023-07-02T14:27:39;14.35;;;5.68;;
81201;SDS011;71068;47.662;-2.750;2023-07-02T14:30:05;12.32;;;6.05;;
81201;SDS011;71068;47.662;-2.750;2023-07-02T14:32:33;15.15;;;5.85;;
81201;SDS011;71068;47.662;-2.750;2023-07-02T14:35:04;16.17;;;6.63;;
81201;SDS011;71068;47.662;-2.750;2023-07-02T14:37:30;12.10;;;5.25;;
81201;SDS011;71068;47.662;-2.750;2023-07-02T14:39:56;22.80;;;6.78;;
81201;SDS011;71068;47.662;-2.750;2023-07-02T14:42:24;16.42;;;5.32;;
81201;SDS011;71068;47.662;-2.750;2023-07-02T14:44:52;17.92;;;6.18;;